Time;durP1;ratioP1;P1;durP2;ratioP2;P2;SDS_P1;SDS_P2;PMS_P1;PMS_P2;Temp;Humidity;BMP_temperature;BMP_pressure;BME280_temperature;BME280_humidity;BME280_pressure;Samples;Min_cycle;Max_cycle;Signal;HPM_P1;HPM_P2
2023/02/02 00:02:35;;;;;;;1999.90;999.90;;;7.90;99.90;;;;;;6719163;88;20344;-76
2023/02/02 00:12:36;;;;;;;1999.90;999.90;;;7.90;99.90;;;;;;6719654;88;20204;-76
2023/02/02 00:22:36;;;;;;;1999.90;999.90;;;7.90;99.90;;;;;;6719076;88;20185;-75
2023/02/02 00:32:37;;;;;;;1999.90;999.90;;;7.90;99.90;;;;;;6718224;88;20240;-75
2023/02/02 00:42:37;;;;;;;1999.90;999.90;;;7.80;99.90;;;;;;6719597;88;20189;-76
2023/02/02 00:52:38;;;;;;;1999.90;999.90;;;7.80;99.90;;;;;;6733622;88;20178;-76
2023/02/02 01:02:38;;;;;;;1999.90;999.90;;;7.90;99.90;;;;;;6739841;88;20204;-76
2023/02/02 01:12:40;;;;;;;1999.90;999.90;;;7.90;99.90;;;;;;6718357;88;20651;-75
2023/02/02 01:22:40;;;;;;;1999.90;999.90;;;7.90;99.90;;;;;;6718297;88;20330;-75
2023/02/02 01:32:41;;;;;;;1999.90;999.90;;;7.80;99.90;;;;;;6719734;88;20228;-75
2023/02/02 01:42:41;;;;;;;1999.90;999.90;;;7.90;99.90;;;;;;6717874;88;21141;-76
2023/02/02 01:52:47;;;;;;;1999.90;999.90;;;7.90;99.90;;;;;;6717159;88;20200;-76
2023/02/02 02:02:48;;;;;;;1999.90;999.90;;;7.70;99.90;;;;;;6700184;88;20876;-75
2023/02/02 02:12:49;;;;;;;1999.90;999.90;;;7.60;99.90;;;;;;6717349;88;20190;-75
2023/02/02 02:34:01;;;;;;;1999.90;999.90;;;7.50;99.90;;;;;;6700897;88;20178;-76
2023/02/02 02:44:08;;;;;;;1999.90;999.90;;;7.50;99.90;;;;;;6704291;88;20795;-76
2023/02/02 02:54:14;;;;;;;1999.90;999.90;;;7.60;99.90;;;;;;6707550;88;20663;-76
2023/02/02 03:04:28;;;;;;;1999.90;999.90;;;7.50;99.90;;;;;;6716357;88;20279;-75
2023/02/02 03:14:34;;;;;;;1999.90;999.90;;;7.60;99.90;;;;;;6717001;88;20666;-76
2023/02/02 03:24:34;;;;;;;1999.90;999.90;;;7.60;99.90;;;;;;6717131;88;20201;-76
2023/02/02 03:34:35;;;;;;;1999.90;999.90;;;7.70;99.90;;;;;;6719120;88;20206;-75
2023/02/02 03:44:35;;;;;;;1999.90;999.90;;;7.70;99.90;;;;;;6726248;88;20289;-76
2023/02/02 03:54:36;;;;;;;1999.90;999.90;;;7.70;99.90;;;;;;6720290;88;20251;-76
2023/02/02 04:04:36;;;;;;;1999.90;999.90;;;7.60;99.90;;;;;;6720023;88;20186;-76
2023/02/02 04:14:37;;;;;;;1999.90;999.90;;;7.50;99.90;;;;;;6722831;88;20227;-76
2023/02/02 04:24:37;;;;;;;1999.90;999.90;;;7.40;99.90;;;;;;6722700;88;20316;-76
2023/02/02 04:34:38;;;;;;;1999.90;999.90;;;7.50;99.90;;;;;;6719931;88;20650;-75
2023/02/02 04:44:39;;;;;;;1999.90;999.90;;;7.40;99.90;;;;;;6720011;88;20180;-76
2023/02/02 04:54:40;;;;;;;1999.90;999.90;;;7.40;99.90;;;;;;6720488;88;20173;-75
2023/02/02 05:04:40;;;;;;;1999.90;999.90;;;7.40;99.90;;;;;;6730447;88;20186;-77
2023/02/02 05:14:41;;;;;;;1999.90;999.90;;;7.40;99.90;;;;;;6752758;77;20256;-75
2023/02/02 05:24:41;;;;;;;1999.90;999.90;;;7.40;99.90;;;;;;6745458;87;20305;-75
2023/02/02 05:34:42;;;;;;;1999.90;999.90;;;7.30;99.90;;;;;;6750020;87;20286;-75
2023/02/02 05:44:42;;;;;;;1999.90;999.90;;;7.30;99.90;;;;;;6746778;87;20216;-75
2023/02/02 05:54:43;;;;;;;1999.90;999.90;;;7.40;99.90;;;;;;6748614;87;20200;-75
2023/02/02 06:04:43;;;;;;;1999.90;999.90;;;7.40;99.90;;;;;;6746212;87;20230;-75
2023/02/02 06:14:44;;;;;;;1999.90;999.90;;;7.30;99.90;;;;;;6745294;87;20262;-75
2023/02/02 06:24:44;;;;;;;1999.90;999.90;;;7.30;99.90;;;;;;6744847;87;20318;-76
2023/02/02 06:34:45;;;;;;;1999.90;999.90;;;7.30;99.90;;;;;;6725671;87;20512;-75
2023/02/02 06:44:45;;;;;;;1999.90;999.90;;;7.40;99.90;;;;;;6721319;88;20636;-74
2023/02/02 06:54:46;;;;;;;1999.90;999.90;;;7.40;99.90;;;;;;6721723;88;20221;-74
2023/02/02 07:04:46;;;;;;;1999.90;999.90;;;7.50;99.90;;;;;;6740725;88;20220;-76
2023/02/02 07:14:47;;;;;;;1999.90;999.90;;;7.50;99.90;;;;;;6719999;88;20312;-77
2023/02/02 07:24:47;;;;;;;1999.90;999.90;;;7.50;99.90;;;;;;6718741;87;20184;-76
2023/02/02 07:34:48;;;;;;;1999.90;999.90;;;7.60;99.90;;;;;;6721827;88;20710;-75
2023/02/02 07:44:48;;;;;;;1999.90;999.90;;;7.70;99.90;;;;;;6743877;87;20673;-75
2023/02/02 07:54:49;;;;;;;1999.90;999.90;;;7.80;99.90;;;;;;6748571;88;20693;-75
2023/02/02 08:04:50;;;;;;;1999.90;999.90;;;7.80;99.90;;;;;;6751049;88;20310;-75
2023/02/02 08:14:51;;;;;;;1999.90;999.90;;;7.80;99.90;;;;;;6750769;88;20338;-75
2023/02/02 08:24:51;;;;;;;1999.90;999.90;;;7.80;99.90;;;;;;6748470;87;21030;-75
2023/02/02 08:34:52;;;;;;;1999.90;999.90;;;7.80;99.90;;;;;;6757406;88;20173;-75
2023/02/02 08:44:52;;;;;;;1999.90;999.90;;;7.80;99.90;;;;;;6770589;87;20214;-74
2023/02/02 08:54:53;;;;;;;1999.90;999.90;;;7.70;99.90;;;;;;6747084;88;20230;-74
2023/02/02 09:04:53;;;;;;;1999.90;999.90;;;7.70;99.90;;;;;;6747239;88;20180;-75
2023/02/02 09:14:54;;;;;;;1999.90;999.90;;;7.70;99.90;;;;;;6745818;88;20222;-76
2023/02/02 09:24:55;;;;;;;1999.90;999.90;;;7.70;99.90;;;;;;6748183;87;20196;-76
2023/02/02 09:34:55;;;;;;;1999.90;999.90;;;7.60;99.90;;;;;;6744071;88;20207;-76
2023/02/02 09:45:30;;;;;;;1999.90;999.90;;;7.70;99.90;;;;;;6757319;88;20498;-76
2023/02/02 09:55:31;;;;;;;1999.90;999.90;;;7.80;99.90;;;;;;6736374;88;20460;-76
2023/02/02 10:05:56;;;;;;;1999.90;999.90;;;8.10;99.90;;;;;;6745912;88;20184;-76
2023/02/02 10:16:00;;;;;;;1999.90;999.90;;;8.30;99.90;;;;;;6748375;88;20250;-75
2023/02/02 10:26:37;;;;;;;1999.90;999.90;;;8.50;99.90;;;;;;6755201;87;20223;-76
2023/02/02 10:36:49;;;;;;;1999.90;999.90;;;8.70;99.90;;;;;;6749593;88;20184;-75
2023/02/02 10:46:54;;;;;;;1999.90;999.90;;;8.70;99.90;;;;;;6747848;87;20611;-76
2023/02/02 10:57:00;;;;;;;1999.90;999.90;;;8.80;99.90;;;;;;6749639;88;20184;-76
2023/02/02 11:07:00;;;;;;;1999.90;999.90;;;8.70;99.90;;;;;;6747323;88;20330;-76
2023/02/02 11:17:15;;;;;;;1999.90;999.90;;;8.90;99.90;;;;;;6743745;77;20200;-75
2023/02/02 11:27:25;;;;;;;1999.90;999.90;;;8.80;99.90;;;;;;6740687;88;20280;-75
2023/02/02 11:37:25;;;;;;;1999.90;999.90;;;8.80;99.90;;;;;;6736915;88;20255;-75
2023/02/02 11:47:30;;;;;;;1999.90;999.90;;;8.90;99.90;;;;;;6736003;88;20648;-75
2023/02/02 11:57:31;;;;;;;1999.90;999.90;;;8.90;99.90;;;;;;6737383;88;20291;-75
2023/02/02 12:07:32;;;;;;;1999.90;999.90;;;8.90;99.90;;;;;;6737105;88;20818;-75
2023/02/02 12:17:39;;;;;;;1999.90;999.90;;;8.90;99.90;;;;;;6739007;88;20356;-76
2023/02/02 12:27:51;;;;;;;1999.90;999.90;;;9.00;99.90;;;;;;6735061;88;20253;-76
2023/02/02 12:37:57;;;;;;;1999.90;999.90;;;9.10;99.90;;;;;;6735005;88;20198;-75
2023/02/02 12:48:24;;;;;;;1999.90;999.90;;;9.30;99.90;;;;;;6738433;88;20185;-76
2023/02/02 12:58:50;;;;;;;1999.90;999.90;;;9.40;99.90;;;;;;6738831;88;20177;-77
2023/02/02 13:09:02;;;;;;;1999.90;999.90;;;9.60;99.90;;;;;;6736894;88;20303;-77
2023/02/02 13:19:10;;;;;;;1999.90;999.90;;;9.70;99.90;;;;;;6738338;88;20237;-77
2023/02/02 13:29:18;;;;;;;1999.90;999.90;;;9.60;99.90;;;;;;6738085;88;20193;-77
2023/02/02 13:39:59;;;;;;;1999.90;999.90;;;9.90;99.90;;;;;;6733182;88;20370;-77
2023/02/02 13:50:06;;;;;;;1999.90;999.90;;;9.80;99.90;;;;;;6724859;88;20578;-77
2023/02/02 14:00:20;;;;;;;1999.90;999.90;;;9.70;99.90;;;;;;6733351;88;20288;-77
2023/02/02 14:10:33;;;;;;;1999.90;999.90;;;9.90;99.90;;;;;;6735616;88;20366;-76
2023/02/02 14:20:42;;;;;;;1999.90;999.90;;;9.90;99.90;;;;;;6732972;88;20207;-76
2023/02/02 14:30:42;;;;;;;1999.90;999.90;;;9.80;99.90;;;;;;6747487;88;20289;-77
2023/02/02 14:41:02;;;;;;;1999.90;999.90;;;9.80;99.90;;;;;;6757614;88;20221;-77
2023/02/02 14:51:20;;;;;;;1999.90;999.90;;;9.90;99.90;;;;;;6762649;88;20300;-77
2023/02/02 15:01:28;;;;;;;1999.90;999.90;;;9.90;99.90;;;;;;6734663;88;20228;-77
2023/02/02 15:11:48;;;;;;;1999.90;999.90;;;9.80;99.90;;;;;;6734768;88;20202;-77
2023/02/02 15:21:53;;;;;;;1999.90;999.90;;;9.70;99.90;;;;;;6734737;88;20484;-75
2023/02/02 15:31:54;;;;;;;1999.90;999.90;;;9.70;99.90;;;;;;6738901;88;20217;-76
2023/02/02 15:52:24;;;;;;;1999.90;999.90;;;9.70;99.90;;;;;;6737923;88;20213;-75
2023/02/02 16:02:36;;;;;;;1999.90;999.90;;;9.60;99.90;;;;;;6749988;88;20726;-75
2023/02/02 16:12:39;;;;;;;1999.90;999.90;;;9.50;99.90;;;;;;6752258;88;20655;-75
2023/02/02 16:22:41;;;;;;;1999.90;999.90;;;9.50;99.90;;;;;;6749235;88;20216;-75
2023/02/02 16:32:43;;;;;;;1999.90;999.90;;;9.60;99.90;;;;;;6746914;88;20425;-75
2023/02/02 16:42:43;;;;;;;1999.90;999.90;;;9.50;99.90;;;;;;6738872;88;20817;-75
2023/02/02 16:52:52;;;;;;;1999.90;999.90;;;9.40;99.90;;;;;;6737281;88;20247;-75
2023/02/02 17:03:03;;;;;;;1999.90;999.90;;;9.50;99.90;;;;;;6731235;88;20246;-77
2023/02/02 17:13:29;;;;;;;1999.90;999.90;;;9.50;99.90;;;;;;6735783;88;20555;-77
2023/02/02 17:23:31;;;;;;;1999.90;999.90;;;9.40;99.90;;;;;;6737986;88;20212;-77
2023/02/02 17:33:33;;;;;;;1999.90;999.90;;;9.40;99.90;;;;;;6737563;88;20251;-76
2023/02/02 17:43:34;;;;;;;1999.90;999.90;;;9.40;99.90;;;;;;6735628;88;20181;-76
2023/02/02 17:53:34;;;;;;;1999.90;999.90;;;9.40;99.90;;;;;;6734288;88;20226;-77
2023/02/02 18:03:37;;;;;;;1999.90;999.90;;;9.30;99.90;;;;;;6735314;88;20305;-76
2023/02/02 18:13:41;;;;;;;1999.90;999.90;;;9.30;99.90;;;;;;6736883;88;20637;-77
2023/02/02 18:23:41;;;;;;;1999.90;999.90;;;9.30;99.90;;;;;;6741168;88;20196;-76
2023/02/02 18:33:42;;;;;;;1999.90;999.90;;;9.20;99.90;;;;;;6740264;88;20214;-77
2023/02/02 18:43:44;;;;;;;1999.90;999.90;;;9.20;99.90;;;;;;6736028;88;20217;-76
2023/02/02 18:53:46;;;;;;;1999.90;999.90;;;9.20;99.90;;;;;;6744297;88;20187;-76
2023/02/02 19:03:51;;;;;;;1999.90;999.90;;;9.20;99.90;;;;;;6757172;88;20182;-77
2023/02/02 19:13:51;;;;;;;1999.90;999.90;;;9.20;99.90;;;;;;6744521;88;20211;-78
2023/02/02 19:23:52;;;;;;;1999.90;999.90;;;9.20;99.90;;;;;;6740831;88;20703;-75
2023/02/02 19:33:52;;;;;;;1999.90;999.90;;;9.30;99.90;;;;;;6742091;88;20200;-76
2023/02/02 19:44:05;;;;;;;1999.90;999.90;;;9.30;99.90;;;;;;6735735;88;20185;-76
2023/02/02 19:54:22;;;;;;;1999.90;999.90;;;9.30;99.90;;;;;;6742977;88;20191;-77
2023/02/02 20:04:22;;;;;;;1999.90;999.90;;;9.30;99.90;;;;;;6738323;88;20185;-77
2023/02/02 20:14:28;;;;;;;1999.90;999.90;;;9.30;99.90;;;;;;6741534;88;20205;-77
2023/02/02 20:24:31;;;;;;;1999.90;999.90;;;9.30;99.90;;;;;;6746530;88;20177;-77
2023/02/02 20:34:38;;;;;;;1999.90;999.90;;;9.30;99.90;;;;;;6739845;88;20727;-77
2023/02/02 20:44:39;;;;;;;1999.90;999.90;;;9.30;99.90;;;;;;6739963;88;20293;-77
2023/02/02 20:54:39;;;;;;;1999.90;999.90;;;9.30;99.90;;;;;;6741268;88;20246;-77
2023/02/02 21:04:45;;;;;;;1999.90;999.90;;;9.30;99.90;;;;;;6740031;88;20193;-78
2023/02/02 21:14:45;;;;;;;1999.90;999.90;;;9.30;99.90;;;;;;6733602;88;20229;-77
2023/02/02 21:24:46;;;;;;;1999.90;999.90;;;9.30;99.90;;;;;;6742924;88;20210;-77
2023/02/02 21:34:48;;;;;;;1999.90;999.90;;;9.30;99.90;;;;;;6740377;88;20177;-77
2023/02/02 21:45:27;;;;;;;1999.90;999.90;;;9.30;99.90;;;;;;6737666;88;20618;-77
2023/02/02 21:55:33;;;;;;;1999.90;999.90;;;9.30;99.90;;;;;;6737806;88;20723;-76
2023/02/02 22:05:35;;;;;;;;;;;9.30;99.90;;;;;;6735837;88;20350;-77
2023/02/02 22:15:35;;;;;;;1999.90;999.90;;;9.30;99.90;;;;;;6745609;88;20075;-76
2023/02/02 22:25:36;;;;;;;1999.90;999.90;;;9.10;99.90;;;;;;6738860;88;20287;-76
2023/02/02 22:35:37;;;;;;;1999.90;999.90;;;9.00;99.90;;;;;;6738863;88;20642;-77
2023/02/02 22:45:38;;;;;;;1999.90;999.90;;;9.00;99.90;;;;;;6738675;88;20654;-76
2023/02/02 22:55:39;;;;;;;1999.90;999.90;;;9.00;99.90;;;;;;6743163;88;20172;-76
2023/02/02 23:05:39;;;;;;;1999.90;999.90;;;8.90;99.90;;;;;;6744116;88;20178;-76
2023/02/02 23:15:40;;;;;;;1999.90;999.90;;;9.00;99.90;;;;;;6757645;88;20264;-75
2023/02/02 23:25:40;;;;;;;1999.90;999.90;;;9.10;99.90;;;;;;6767367;88;20205;-75
2023/02/02 23:35:41;;;;;;;1999.90;999.90;;;9.00;99.90;;;;;;6741553;88;20245;-75
2023/02/02 23:45:41;;;;;;;1999.90;999.90;;;9.10;99.90;;;;;;6735691;88;20215;-75
2023/02/02 23:55:44;;;;;;;1999.90;999.90;;;9.20;99.90;;;;;;6734440;88;20188;-76
